Airport details for: LZPP (Slovak Republic)

Metar

LZPP 240630Z VRB01KT CAVOK 22/15 Q1016

General details

ICAO: LZPP
IATA: PZY
Name (city): Piestany
Major:
Country: Slovak Republic
vACC: vACC Slovakia
Description:

Piešťany Airport is an airport serving spa town of Piešťany, Slovakia.

Scenery links:
FS9 scenery: Download
FSX/P3D scenery: Download
XP scenery: Download
Elevation: 545 ft.
Transition altitude: 8000 ft.
MSA: 6500 ft.
Latitude: 48.625
Longitude: 17.828611
LZPP Charts
LZPP Notams
LZPP Online stations

Runways

Number Course Length Elevation Lat Lon ILS ILS freq ILS FAC GP
01 11° 6562ft / 2000 m 535ft 48.616383 17.825384 109.3 11° 3.0°
19 191° 6562ft / 2000 m 541ft 48.633845 17.831772 - - 3.0°